createdAt,value
2023-03-23T00:00:03.558Z,971.48
2023-03-23T00:01:03.495Z,971.31
2023-03-23T00:02:03.760Z,971.40
2023-03-23T00:03:03.529Z,971.37
2023-03-23T00:04:03.950Z,971.34
2023-03-23T00:05:03.868Z,971.42
2023-03-23T00:06:03.829Z,971.37
2023-03-23T00:07:03.691Z,971.36
2023-03-23T00:08:03.710Z,971.28
2023-03-23T00:09:03.782Z,971.39
2023-03-23T00:10:03.769Z,971.37
2023-03-23T00:11:03.764Z,971.20
2023-03-23T00:12:04.331Z,971.19
2023-03-23T00:13:03.976Z,971.25
2023-03-23T00:14:03.758Z,971.25
2023-03-23T00:15:03.717Z,971.14
2023-03-23T00:16:04.743Z,971.19
2023-03-23T00:17:03.988Z,971.11
2023-03-23T00:18:03.843Z,971.16
2023-03-23T00:19:03.834Z,971.25
2023-03-23T00:20:03.703Z,971.19
2023-03-23T00:21:03.699Z,971.11
2023-03-23T00:22:04.199Z,971.13
2023-03-23T00:23:03.835Z,971.14
2023-03-23T00:24:03.975Z,971.05
2023-03-23T00:25:03.902Z,971.08
2023-03-23T00:26:03.866Z,971.13
2023-03-23T00:27:04.094Z,970.90
2023-03-23T00:28:03.770Z,971.13
2023-03-23T00:29:03.840Z,971.08
2023-03-23T00:30:03.910Z,970.90
2023-03-23T00:31:03.831Z,970.99
2023-03-23T00:32:03.766Z,970.90
2023-03-23T00:33:03.718Z,971.05
2023-03-23T00:34:03.942Z,970.96
2023-03-23T00:35:03.875Z,970.96
2023-03-23T00:36:03.782Z,970.99
2023-03-23T00:37:03.792Z,970.85
2023-03-23T00:38:03.793Z,970.91
2023-03-23T00:39:03.759Z,970.99
2023-03-23T00:40:03.982Z,970.91
2023-03-23T00:41:03.825Z,970.85
2023-03-23T00:42:03.783Z,970.82
2023-03-23T00:43:03.698Z,970.99
2023-03-23T00:44:03.649Z,970.85
2023-03-23T00:45:03.708Z,970.88
2023-03-23T00:46:03.588Z,970.91
2023-03-23T00:47:03.600Z,970.76
2023-03-23T00:48:03.712Z,970.91
2023-03-23T00:49:03.596Z,970.79
2023-03-23T00:50:03.616Z,970.74
2023-03-23T00:51:03.677Z,970.82
2023-03-23T00:52:03.715Z,970.85
2023-03-23T00:53:03.747Z,970.80
2023-03-23T00:54:03.703Z,970.77
2023-03-23T00:55:03.713Z,970.80
2023-03-23T00:56:03.622Z,970.74
2023-03-23T00:57:03.916Z,970.68
2023-03-23T00:58:03.887Z,970.62
2023-03-23T00:59:09.054Z,970.65
2023-03-23T01:00:06.732Z,970.77
2023-03-23T01:01:03.450Z,970.80
2023-03-23T01:02:03.581Z,970.80
2023-03-23T01:03:03.555Z,970.85
2023-03-23T01:04:03.505Z,970.88
2023-03-23T01:05:03.529Z,970.79
2023-03-23T01:06:03.582Z,970.77
2023-03-23T01:07:03.477Z,970.82
2023-03-23T01:08:03.568Z,970.74
2023-03-23T01:09:03.641Z,970.80
2023-03-23T01:10:03.805Z,970.80
2023-03-23T01:11:02.971Z,970.71
2023-03-23T01:12:03.003Z,970.82
2023-03-23T01:13:03.031Z,970.68
2023-03-23T01:14:03.055Z,970.85
2023-03-23T01:15:03.482Z,970.82
2023-03-23T01:16:03.430Z,970.80
2023-03-23T01:17:03.258Z,970.74
2023-03-23T01:18:03.150Z,970.71
2023-03-23T01:19:03.557Z,970.68
2023-03-23T01:20:03.310Z,970.65
2023-03-23T01:21:03.195Z,970.57
2023-03-23T01:22:03.072Z,970.62
2023-03-23T01:23:03.227Z,970.62
2023-03-23T01:24:03.372Z,970.65
2023-03-23T01:25:03.041Z,970.51
2023-03-23T01:26:03.016Z,970.54
2023-03-23T01:27:03.099Z,970.45
2023-03-23T01:28:03.068Z,970.51
2023-03-23T01:29:03.201Z,970.60
2023-03-23T01:30:03.148Z,970.60
2023-03-23T01:31:14.992Z,970.57
2023-03-23T01:32:02.938Z,970.46
2023-03-23T01:33:03.879Z,970.46
2023-03-23T01:34:02.973Z,970.51
2023-03-23T01:35:02.945Z,970.57
2023-03-23T01:36:04.219Z,970.46
2023-03-23T01:37:03.848Z,970.54
2023-03-23T01:38:03.845Z,970.49
2023-03-23T01:39:03.758Z,970.52
2023-03-23T01:40:03.911Z,970.63
2023-03-23T01:41:04.133Z,970.43
2023-03-23T01:42:03.769Z,970.52
2023-03-23T01:43:03.844Z,970.41
2023-03-23T01:44:03.875Z,970.27
2023-03-23T01:45:03.810Z,970.49
2023-03-23T01:46:03.824Z,970.33
2023-03-23T01:47:04.040Z,970.39
2023-03-23T01:48:03.705Z,970.43
2023-03-23T01:49:03.894Z,970.36
2023-03-23T01:50:03.704Z,970.33
2023-03-23T01:51:03.691Z,970.38
2023-03-23T01:52:03.650Z,970.36
2023-03-23T01:53:03.815Z,970.35
2023-03-23T01:54:03.853Z,970.30
2023-03-23T01:55:04.047Z,970.18
2023-03-23T01:56:03.686Z,970.33
2023-03-23T01:57:03.571Z,970.21
2023-03-23T01:58:03.584Z,970.33
2023-03-23T01:59:03.631Z,970.15
2023-03-23T02:00:03.586Z,970.21
2023-03-23T02:01:03.934Z,970.15
2023-03-23T02:02:03.782Z,970.15
2023-03-23T02:03:03.606Z,970.21
2023-03-23T02:04:03.664Z,970.21
2023-03-23T02:05:03.566Z,970.15
2023-03-23T02:06:03.718Z,970.15
2023-03-23T02:07:03.741Z,970.15
2023-03-23T02:08:03.602Z,970.21
2023-03-23T02:09:11.057Z,970.23
2023-03-23T02:10:03.639Z,970.09
2023-03-23T02:11:03.528Z,970.20
2023-03-23T02:12:03.562Z,970.23
2023-03-23T02:13:03.535Z,970.17
2023-03-23T02:14:03.504Z,970.12
2023-03-23T02:15:03.390Z,970.26
2023-03-23T02:16:03.946Z,970.17
2023-03-23T02:17:03.473Z,970.17
2023-03-23T02:18:03.486Z,970.08
2023-03-23T02:19:03.434Z,970.14
2023-03-23T02:20:03.403Z,970.05
2023-03-23T02:21:03.349Z,970.08
2023-03-23T02:22:03.610Z,970.02
2023-03-23T02:23:03.304Z,970.02
2023-03-23T02:24:03.266Z,969.89
2023-03-23T02:25:03.331Z,969.86
2023-03-23T02:26:03.265Z,969.97
2023-03-23T02:27:03.439Z,969.92
2023-03-23T02:28:03.309Z,970.05
2023-03-23T02:29:03.428Z,969.86
2023-03-23T02:30:03.642Z,969.92
2023-03-23T02:31:03.449Z,969.89
2023-03-23T02:32:03.352Z,969.89
2023-03-23T02:33:03.665Z,969.92
2023-03-23T02:34:03.811Z,969.97
2023-03-23T02:35:03.563Z,969.89
2023-03-23T02:36:03.805Z,969.97
2023-03-23T02:37:03.322Z,969.83
2023-03-23T02:38:03.452Z,969.89
2023-03-23T02:39:03.348Z,969.87
2023-03-23T02:40:03.450Z,969.97
2023-03-23T02:41:03.451Z,969.92
2023-03-23T02:42:15.592Z,970.00
2023-03-23T02:43:03.181Z,969.97
2023-03-23T02:44:03.196Z,969.84
2023-03-23T02:45:03.302Z,969.81
2023-03-23T02:48:03.269Z,969.67
2023-03-23T02:49:03.275Z,969.81
2023-03-23T02:50:03.206Z,969.76
2023-03-23T02:51:03.529Z,969.78
2023-03-23T02:52:03.163Z,969.73
2023-03-23T02:53:02.968Z,969.61
2023-03-23T02:54:03.080Z,969.64
2023-03-23T02:55:03.161Z,969.61
2023-03-23T02:56:03.113Z,969.58
2023-03-23T02:57:03.121Z,969.73
2023-03-23T02:58:03.039Z,969.53
2023-03-23T02:59:03.060Z,969.47
2023-03-23T03:00:03.498Z,969.53
2023-03-23T03:01:02.976Z,969.39
2023-03-23T03:02:03.338Z,969.36
2023-03-23T03:03:03.840Z,969.36
2023-03-23T03:04:04.024Z,969.44
2023-03-23T03:05:03.859Z,969.39
2023-03-23T03:06:03.277Z,969.47
2023-03-23T03:07:03.880Z,969.33
2023-03-23T03:08:04.241Z,969.42
2023-03-23T03:09:03.878Z,969.33
2023-03-23T03:10:03.875Z,969.33
2023-03-23T03:11:03.793Z,969.47
2023-03-23T03:12:03.789Z,969.33
2023-03-23T03:13:03.677Z,969.22
2023-03-23T03:14:03.660Z,969.45
2023-03-23T03:15:03.846Z,969.28
2023-03-23T03:16:03.727Z,969.36
2023-03-23T03:17:04.472Z,969.25
2023-03-23T03:18:03.859Z,969.39
2023-03-23T03:19:03.717Z,969.28
2023-03-23T03:20:03.846Z,969.33
2023-03-23T03:21:03.611Z,969.31
2023-03-23T03:22:04.010Z,969.36
2023-03-23T03:23:03.720Z,969.28
2023-03-23T03:24:03.786Z,969.25
2023-03-23T03:25:19.005Z,969.33
2023-03-23T03:26:03.793Z,969.19
2023-03-23T03:27:03.533Z,969.17
2023-03-23T03:28:04.587Z,969.28
2023-03-23T03:29:03.539Z,969.11
2023-03-23T03:30:03.630Z,969.37
2023-03-23T03:31:03.720Z,969.39
2023-03-23T03:32:03.530Z,969.31
2023-03-23T03:33:03.411Z,969.31
2023-03-23T03:34:03.485Z,969.28
2023-03-23T03:35:03.520Z,969.23
2023-03-23T03:36:03.454Z,969.37
2023-03-23T03:37:03.524Z,969.34
2023-03-23T03:38:03.373Z,969.28
2023-03-23T03:39:03.400Z,969.14
2023-03-23T03:40:03.361Z,969.23
2023-03-23T03:41:03.454Z,969.03
2023-03-23T03:42:03.443Z,969.28
2023-03-23T03:43:03.500Z,969.37
2023-03-23T03:44:03.622Z,969.14
2023-03-23T03:45:03.509Z,969.14
2023-03-23T03:46:03.355Z,969.20
2023-03-23T03:47:03.219Z,969.11
2023-03-23T03:48:06.227Z,969.00
2023-03-23T03:49:03.616Z,969.08
2023-03-23T03:50:03.267Z,969.23
2023-03-23T03:51:04.942Z,969.23
2023-03-23T03:52:03.218Z,969.20
2023-03-23T03:53:03.201Z,969.23
2023-03-23T03:54:03.323Z,969.34
2023-03-23T03:55:03.364Z,969.29
2023-03-23T03:56:03.806Z,969.23
2023-03-23T03:57:03.473Z,969.14
2023-03-23T03:58:03.959Z,969.34
2023-03-23T03:59:23.476Z,969.26
2023-03-23T04:00:03.235Z,969.43
2023-03-23T04:01:03.056Z,969.46
2023-03-23T04:02:03.252Z,969.46
2023-03-23T04:03:03.202Z,969.37
2023-03-23T04:04:03.055Z,969.49
2023-03-23T04:05:03.139Z,969.58
2023-03-23T04:06:03.232Z,969.58
2023-03-23T04:07:03.076Z,969.41
2023-03-23T04:08:10.041Z,969.60
2023-03-23T04:09:09.065Z,969.49
2023-03-23T04:10:03.369Z,969.35
2023-03-23T04:11:03.166Z,969.44
2023-03-23T04:12:03.083Z,969.44
2023-03-23T04:13:03.052Z,969.44
2023-03-23T04:14:03.073Z,969.44
2023-03-23T04:15:06.797Z,969.41
2023-03-23T04:16:11.577Z,969.49
2023-03-23T04:17:03.088Z,969.46
2023-03-23T04:18:03.100Z,969.35
2023-03-23T04:19:03.147Z,969.32
2023-03-23T04:20:03.048Z,969.32
2023-03-23T04:21:05.415Z,969.38
2023-03-23T04:22:04.060Z,969.26
2023-03-23T04:23:03.927Z,969.26
2023-03-23T04:24:55.693Z,969.38
2023-03-23T04:25:03.164Z,969.38
2023-03-23T04:26:04.618Z,969.26
2023-03-23T04:27:03.973Z,969.26
2023-03-23T04:28:03.874Z,969.21
2023-03-23T04:29:03.838Z,969.27
2023-03-23T04:30:03.932Z,969.26
2023-03-23T04:31:06.579Z,969.32
2023-03-23T04:32:03.279Z,969.29
2023-03-23T04:33:03.263Z,969.29
2023-03-23T04:34:03.101Z,969.38
2023-03-23T04:35:14.207Z,969.38
2023-03-23T04:36:03.517Z,969.32
2023-03-23T04:37:03.804Z,969.21
2023-03-23T04:38:03.128Z,969.21
2023-03-23T04:39:03.141Z,969.26
2023-03-23T04:40:03.123Z,969.27
2023-03-23T04:41:02.981Z,969.21
2023-03-23T04:42:03.004Z,969.21
2023-03-23T04:43:03.486Z,969.26
2023-03-23T04:44:03.080Z,969.21
2023-03-23T04:45:03.037Z,969.27
2023-03-23T04:46:02.986Z,969.15
2023-03-23T04:47:02.884Z,969.38
2023-03-23T04:48:02.993Z,969.21
2023-03-23T04:49:04.218Z,969.30
2023-03-23T04:50:03.896Z,969.38
2023-03-23T04:51:02.964Z,969.30
2023-03-23T04:52:02.930Z,969.38
2023-03-23T04:53:02.941Z,969.21
2023-03-23T04:54:03.000Z,969.41
2023-03-23T04:55:03.946Z,969.27
2023-03-23T04:56:03.778Z,969.33
2023-03-23T04:57:03.797Z,969.50
2023-03-23T04:58:03.977Z,969.29
2023-03-23T04:59:03.815Z,969.38
2023-03-23T05:00:04.049Z,969.44
2023-03-23T05:01:09.368Z,969.44
2023-03-23T05:02:15.282Z,969.44
2023-03-23T05:03:03.847Z,969.35
2023-03-23T05:04:04.141Z,969.32
2023-03-23T05:05:03.792Z,969.44
2023-03-23T05:06:03.866Z,969.41
2023-03-23T05:07:03.834Z,969.27
2023-03-23T05:08:03.784Z,969.38
2023-03-23T05:09:03.842Z,969.41
2023-03-23T05:10:03.756Z,969.35
2023-03-23T05:11:03.801Z,969.44
2023-03-23T05:12:03.730Z,969.44
2023-03-23T05:13:03.766Z,969.44
2023-03-23T05:14:03.656Z,969.41
2023-03-23T05:15:03.787Z,969.44
2023-03-23T05:16:03.722Z,969.49
2023-03-23T05:17:03.844Z,969.46
2023-03-23T05:18:03.819Z,969.61
2023-03-23T05:19:03.698Z,969.49
2023-03-23T05:20:03.749Z,969.29
2023-03-23T05:21:03.652Z,969.44
2023-03-23T05:22:03.667Z,969.49
2023-03-23T05:23:03.647Z,969.49
2023-03-23T05:24:03.584Z,969.38
2023-03-23T05:25:03.866Z,969.26
2023-03-23T05:26:03.806Z,969.46
2023-03-23T05:27:03.765Z,969.55
2023-03-23T05:28:03.723Z,969.49
2023-03-23T05:29:03.640Z,969.52
2023-03-23T05:30:03.692Z,969.46
2023-03-23T05:31:03.593Z,969.49
2023-03-23T05:32:03.685Z,969.55
2023-03-23T05:33:03.669Z,969.58
2023-03-23T05:34:03.654Z,969.64
2023-03-23T05:35:03.799Z,969.58
2023-03-23T05:36:03.904Z,969.52
2023-03-23T05:37:03.837Z,969.58
2023-03-23T05:38:03.759Z,969.46
2023-03-23T05:39:03.800Z,969.66
2023-03-23T05:40:03.878Z,969.55
2023-03-23T05:41:03.798Z,969.52
2023-03-23T05:42:03.875Z,969.72
2023-03-23T05:43:03.867Z,969.81
2023-03-23T05:44:03.731Z,969.61
2023-03-23T05:45:03.735Z,969.55
2023-03-23T05:46:03.673Z,969.72
2023-03-23T05:47:03.653Z,969.64
2023-03-23T05:48:03.714Z,969.69
2023-03-23T05:49:03.709Z,969.75
2023-03-23T05:50:03.681Z,969.66
2023-03-23T05:51:03.806Z,969.72
2023-03-23T05:52:03.754Z,969.66
2023-03-23T05:53:03.633Z,969.86
2023-03-23T05:54:03.754Z,969.75
2023-03-23T05:55:03.669Z,969.78
2023-03-23T05:56:03.558Z,969.78
2023-03-23T05:57:03.506Z,969.78
2023-03-23T05:58:03.519Z,969.81
2023-03-23T05:59:03.682Z,969.86
2023-03-23T06:00:03.473Z,969.77
2023-03-23T06:01:03.510Z,969.97
2023-03-23T06:02:03.504Z,969.86
2023-03-23T06:03:03.547Z,970.02
2023-03-23T06:04:03.596Z,969.89
2023-03-23T06:05:03.566Z,969.88
2023-03-23T06:06:03.663Z,969.86
2023-03-23T06:07:03.506Z,969.88
2023-03-23T06:08:03.425Z,969.99
2023-03-23T06:09:03.513Z,969.99
2023-03-23T06:10:03.641Z,969.99
2023-03-23T06:11:03.688Z,969.96
2023-03-23T06:12:03.618Z,969.91
2023-03-23T06:13:03.728Z,970.04
2023-03-23T06:14:03.679Z,970.10
2023-03-23T06:15:03.863Z,969.99
2023-03-23T06:16:03.925Z,969.88
2023-03-23T06:17:03.915Z,970.01
2023-03-23T06:18:03.957Z,970.18
2023-03-23T06:19:02.958Z,970.13
2023-03-23T06:20:03.065Z,970.07
2023-03-23T06:21:03.071Z,970.13
2023-03-23T06:22:03.020Z,970.16
2023-03-23T06:23:03.172Z,970.04
2023-03-23T06:24:03.099Z,970.10
2023-03-23T06:25:03.438Z,970.21
2023-03-23T06:26:05.041Z,970.15
2023-03-23T06:27:03.173Z,970.04
2023-03-23T06:28:03.288Z,970.24
2023-03-23T06:29:03.327Z,970.10
2023-03-23T06:30:03.388Z,970.24
2023-03-23T06:31:03.358Z,970.18
2023-03-23T06:32:03.297Z,970.27
2023-03-23T06:33:03.340Z,970.07
2023-03-23T06:34:03.366Z,970.15
2023-03-23T06:35:03.341Z,970.13
2023-03-23T06:36:03.353Z,970.18
2023-03-23T06:37:03.188Z,970.18
2023-03-23T06:38:03.248Z,970.18
2023-03-23T06:39:03.400Z,970.18
2023-03-23T06:40:03.284Z,970.18
2023-03-23T06:41:04.454Z,970.18
2023-03-23T06:42:03.334Z,970.07
2023-03-23T06:43:03.157Z,970.21
2023-03-23T06:44:03.286Z,970.16
2023-03-23T06:45:03.300Z,970.21
2023-03-23T06:46:03.330Z,970.27
2023-03-23T06:47:03.274Z,970.27
2023-03-23T06:48:03.361Z,970.21
2023-03-23T06:49:03.340Z,970.10
2023-03-23T06:50:03.342Z,970.13
2023-03-23T06:51:03.382Z,970.13
2023-03-23T06:52:03.400Z,970.16
2023-03-23T06:53:03.455Z,970.13
2023-03-23T06:54:03.375Z,970.30
2023-03-23T06:55:03.283Z,970.22
2023-03-23T06:56:03.243Z,970.16
2023-03-23T06:57:03.446Z,970.10
2023-03-23T06:58:03.302Z,970.05
2023-03-23T06:59:03.331Z,970.22
2023-03-23T07:00:03.341Z,970.25
2023-03-23T07:01:03.189Z,970.19
2023-03-23T07:02:03.186Z,970.16
2023-03-23T07:03:03.137Z,970.33
2023-03-23T07:04:03.262Z,970.19
2023-03-23T07:05:03.261Z,970.08
2023-03-23T07:06:03.306Z,970.02
2023-03-23T07:07:03.328Z,970.05
2023-03-23T07:08:03.430Z,970.16
2023-03-23T07:09:03.415Z,969.99
2023-03-23T07:10:03.339Z,970.05
2023-03-23T07:11:03.451Z,969.92
2023-03-23T07:12:03.315Z,970.05
2023-03-23T07:13:03.297Z,969.92
2023-03-23T07:14:03.354Z,969.99
2023-03-23T07:15:03.432Z,970.08
2023-03-23T07:16:03.408Z,970.11
2023-03-23T07:17:03.366Z,970.08
2023-03-23T07:18:03.249Z,970.02
2023-03-23T07:19:03.184Z,970.16
2023-03-23T07:20:03.173Z,970.05
2023-03-23T07:21:03.232Z,970.07
2023-03-23T07:22:03.377Z,970.16
2023-03-23T07:23:03.514Z,970.16
2023-03-23T07:24:03.112Z,970.10
2023-03-23T07:25:03.421Z,970.04
2023-03-23T07:26:03.221Z,970.07
2023-03-23T07:27:03.133Z,970.10
2023-03-23T07:28:03.294Z,970.07
2023-03-23T07:29:03.237Z,970.07
2023-03-23T07:30:03.162Z,970.04
2023-03-23T07:31:03.086Z,970.07
2023-03-23T07:32:03.140Z,970.13
2023-03-23T07:33:03.049Z,970.13
2023-03-23T07:34:02.958Z,970.10
2023-03-23T07:35:07.769Z,970.05
2023-03-23T07:36:03.250Z,970.07
2023-03-23T07:37:03.058Z,970.16
2023-03-23T07:38:03.189Z,970.10
2023-03-23T07:39:03.161Z,970.25
2023-03-23T07:40:03.181Z,970.16
2023-03-23T07:41:03.340Z,970.22
2023-03-23T07:42:03.364Z,970.05
2023-03-23T07:43:03.515Z,970.16
2023-03-23T07:44:03.523Z,970.10
2023-03-23T07:45:03.485Z,970.02
2023-03-23T07:46:03.441Z,970.19
2023-03-23T07:47:03.399Z,970.10
2023-03-23T07:48:15.842Z,970.07
2023-03-23T07:49:03.581Z,970.10
2023-03-23T07:50:03.733Z,970.16
2023-03-23T07:51:03.344Z,970.04
2023-03-23T07:52:03.436Z,969.99
2023-03-23T07:53:03.469Z,970.10
2023-03-23T07:54:06.651Z,970.04
2023-03-23T07:55:03.590Z,970.13
2023-03-23T07:56:03.603Z,969.98
2023-03-23T07:57:03.677Z,969.98
2023-03-23T07:58:03.643Z,970.10
2023-03-23T07:59:03.515Z,970.09
2023-03-23T08:00:03.507Z,969.98
2023-03-23T08:01:03.401Z,969.90
2023-03-23T08:02:03.464Z,970.09
2023-03-23T08:03:03.338Z,970.07
2023-03-23T08:04:03.457Z,970.01
2023-03-23T08:05:03.370Z,970.07
2023-03-23T08:06:03.270Z,969.93
2023-03-23T08:07:03.292Z,970.07
2023-03-23T08:08:03.391Z,970.09
2023-03-23T08:09:03.433Z,970.04
2023-03-23T08:10:03.516Z,970.01
2023-03-23T08:11:03.494Z,969.90
2023-03-23T08:12:03.428Z,970.04
2023-03-23T08:13:03.615Z,970.06
2023-03-23T08:14:03.568Z,970.01
2023-03-23T08:15:03.316Z,969.93
2023-03-23T08:16:03.502Z,970.00
2023-03-23T08:17:03.547Z,970.06
2023-03-23T08:18:03.440Z,970.12
2023-03-23T08:19:08.998Z,970.12
2023-03-23T08:20:03.463Z,970.12
2023-03-23T08:21:03.505Z,970.14
2023-03-23T08:22:03.450Z,970.23
2023-03-23T08:23:03.530Z,970.23
2023-03-23T08:24:03.372Z,970.20
2023-03-23T08:25:03.309Z,970.14
2023-03-23T08:26:03.390Z,970.11
2023-03-23T08:27:03.412Z,970.14
2023-03-23T08:28:03.260Z,970.13
2023-03-23T08:29:03.283Z,970.07
2023-03-23T08:30:03.560Z,969.96
2023-03-23T08:31:03.489Z,970.13
2023-03-23T08:32:03.498Z,970.13
2023-03-23T08:33:03.505Z,970.01
2023-03-23T08:34:03.661Z,970.13
2023-03-23T08:35:03.589Z,970.04
2023-03-23T08:36:03.674Z,970.24
2023-03-23T08:37:03.526Z,970.10
2023-03-23T08:38:03.525Z,970.09
2023-03-23T08:39:03.492Z,970.24
2023-03-23T08:40:03.784Z,970.32
2023-03-23T08:41:03.629Z,970.35
2023-03-23T08:42:03.603Z,970.26
2023-03-23T08:43:03.603Z,970.26
2023-03-23T08:44:03.623Z,970.29
2023-03-23T08:45:03.672Z,970.37
2023-03-23T08:46:03.834Z,970.40
2023-03-23T08:47:03.892Z,970.31
2023-03-23T08:48:03.971Z,970.50
2023-03-23T08:49:02.996Z,970.47
2023-03-23T08:50:02.969Z,970.55
2023-03-23T08:51:03.034Z,970.42
2023-03-23T08:52:03.049Z,970.39
2023-03-23T08:53:03.166Z,970.46
2023-03-23T08:54:03.072Z,970.49
2023-03-23T08:55:03.186Z,970.43
2023-03-23T08:56:03.186Z,970.46
2023-03-23T08:57:03.121Z,970.32
2023-03-23T08:58:03.209Z,970.41
2023-03-23T08:59:03.203Z,970.29
2023-03-23T09:00:03.095Z,970.32
2023-03-23T09:01:03.140Z,970.26
2023-03-23T09:02:03.072Z,970.32
2023-03-23T09:03:03.050Z,970.45
2023-03-23T09:04:03.150Z,970.42
2023-03-23T09:05:03.131Z,970.40
2023-03-23T09:06:02.957Z,970.37
2023-03-23T09:07:03.042Z,970.42
2023-03-23T09:08:03.010Z,970.40
2023-03-23T09:09:03.036Z,970.34
2023-03-23T09:10:02.925Z,970.42
2023-03-23T09:11:03.083Z,970.31
2023-03-23T09:12:02.964Z,970.44
2023-03-23T09:13:02.985Z,970.42
2023-03-23T09:14:03.003Z,970.41
2023-03-23T09:15:03.028Z,970.38
2023-03-23T09:16:03.191Z,970.43
2023-03-23T09:17:03.147Z,970.42
2023-03-23T09:18:03.218Z,970.35
2023-03-23T09:19:03.048Z,970.48
2023-03-23T09:20:03.161Z,970.47
2023-03-23T09:21:03.195Z,970.44
2023-03-23T09:22:03.068Z,970.55
2023-03-23T09:23:02.976Z,970.55
2023-03-23T09:24:03.094Z,970.61
2023-03-23T09:25:03.070Z,970.52
2023-03-23T09:26:03.145Z,970.57
2023-03-23T09:27:03.112Z,970.60
2023-03-23T09:28:03.143Z,970.51
2023-03-23T09:29:03.069Z,970.69
2023-03-23T09:30:03.050Z,970.66
2023-03-23T09:31:03.132Z,970.63
2023-03-23T09:32:03.213Z,970.71
2023-03-23T09:33:03.162Z,970.74
2023-03-23T09:34:03.060Z,970.57
2023-03-23T09:35:03.286Z,970.83
2023-03-23T09:36:03.333Z,970.71
2023-03-23T09:37:03.485Z,970.77
2023-03-23T09:38:03.599Z,970.59
2023-03-23T09:39:03.490Z,970.59
2023-03-23T09:40:07.419Z,970.73
2023-03-23T09:41:03.418Z,970.85
2023-03-23T09:42:03.339Z,970.70
2023-03-23T09:43:03.270Z,970.84
2023-03-23T09:44:03.464Z,970.84
2023-03-23T09:45:03.502Z,970.96
2023-03-23T09:46:03.394Z,970.90
2023-03-23T09:47:03.437Z,970.81
2023-03-23T09:48:03.431Z,970.81
2023-03-23T09:49:03.728Z,970.81
2023-03-23T09:50:03.427Z,970.89
2023-03-23T09:51:03.306Z,970.98
2023-03-23T09:52:03.392Z,970.95
2023-03-23T09:53:03.418Z,970.98
2023-03-23T09:54:03.460Z,971.03
2023-03-23T09:55:03.439Z,970.92
2023-03-23T09:56:03.336Z,970.89
2023-03-23T09:57:03.330Z,970.88
2023-03-23T09:58:03.360Z,970.91
2023-03-23T09:59:03.426Z,970.85
2023-03-23T10:00:03.438Z,970.85
2023-03-23T10:01:03.508Z,970.81
2023-03-23T10:02:03.469Z,970.93
2023-03-23T10:03:03.407Z,970.90
2023-03-23T10:04:03.442Z,970.92
2023-03-23T10:05:03.427Z,971.04
2023-03-23T10:06:03.419Z,971.01
2023-03-23T10:07:03.378Z,970.92
2023-03-23T10:08:03.530Z,971.10
2023-03-23T10:09:03.352Z,971.07
2023-03-23T10:10:03.431Z,971.16
2023-03-23T10:11:03.483Z,971.10
2023-03-23T10:12:03.427Z,971.14
2023-03-23T10:13:03.490Z,971.20
2023-03-23T10:14:03.406Z,971.20
2023-03-23T10:15:03.558Z,971.31
2023-03-23T10:16:03.623Z,971.14
2023-03-23T10:17:03.777Z,971.26
2023-03-23T10:18:03.711Z,971.20
2023-03-23T10:19:03.645Z,971.29
2023-03-23T10:20:03.739Z,971.12
2023-03-23T10:21:03.744Z,971.35
2023-03-23T10:22:03.661Z,971.24
2023-03-23T10:23:03.668Z,971.33
2023-03-23T10:24:03.717Z,971.18
2023-03-23T10:25:03.684Z,971.27
2023-03-23T10:26:03.805Z,971.30
2023-03-23T10:27:03.882Z,971.33
2023-03-23T10:28:03.797Z,971.28
2023-03-23T10:29:03.754Z,971.31
2023-03-23T10:30:03.897Z,971.31
2023-03-23T10:31:02.939Z,971.28
2023-03-23T10:32:02.956Z,971.28
2023-03-23T10:33:03.082Z,971.14
2023-03-23T10:34:03.116Z,971.20
2023-03-23T10:35:03.258Z,971.26
2023-03-23T10:36:03.258Z,971.14
2023-03-23T10:37:03.084Z,971.23
2023-03-23T10:38:03.139Z,971.29
2023-03-23T10:39:03.358Z,971.03
2023-03-23T10:40:03.304Z,971.12
2023-03-23T10:41:03.280Z,971.20
2023-03-23T10:42:03.366Z,971.03
2023-03-23T10:43:03.405Z,971.06
2023-03-23T10:44:03.335Z,970.92
2023-03-23T10:45:03.249Z,971.06
2023-03-23T10:46:03.901Z,970.92
2023-03-23T10:47:03.271Z,971.00
2023-03-23T10:48:03.304Z,970.89
2023-03-23T10:49:03.358Z,970.89
2023-03-23T10:50:03.348Z,970.92
2023-03-23T10:51:03.497Z,970.78
2023-03-23T10:52:03.388Z,970.92
2023-03-23T10:53:06.176Z,970.81
2023-03-23T10:54:03.570Z,970.89
2023-03-23T10:55:03.424Z,970.90
2023-03-23T10:56:03.417Z,970.89
2023-03-23T10:57:04.351Z,970.92
2023-03-23T10:58:03.485Z,970.81
2023-03-23T10:59:03.527Z,970.92
2023-03-23T11:00:03.584Z,970.89
2023-03-23T11:01:03.569Z,971.09
2023-03-23T11:02:03.599Z,970.95
2023-03-23T11:03:06.926Z,971.01
2023-03-23T11:04:03.686Z,970.89
2023-03-23T11:05:11.856Z,970.87
2023-03-23T11:06:03.587Z,971.04
2023-03-23T11:07:03.592Z,971.09
2023-03-23T11:08:03.560Z,970.98
2023-03-23T11:09:03.595Z,971.01
2023-03-23T11:10:03.604Z,971.06
2023-03-23T11:11:03.562Z,970.95
2023-03-23T11:12:03.944Z,970.92
2023-03-23T11:13:03.687Z,970.92
2023-03-23T11:14:03.568Z,970.95
2023-03-23T11:15:03.652Z,970.95
2023-03-23T11:16:03.759Z,970.95
2023-03-23T11:17:16.115Z,970.89
2023-03-23T11:18:03.839Z,970.95
2023-03-23T11:19:03.881Z,971.03
2023-03-23T11:20:03.901Z,970.98
2023-03-23T11:21:02.987Z,971.06
2023-03-23T11:22:02.988Z,970.98
2023-03-23T11:23:02.967Z,971.07
2023-03-23T11:24:10.313Z,971.04
2023-03-23T11:25:03.110Z,971.04
2023-03-23T11:26:03.167Z,971.13
2023-03-23T11:27:03.255Z,971.10
2023-03-23T11:28:03.150Z,971.13
2023-03-23T11:29:03.221Z,971.07
2023-03-23T11:30:03.139Z,971.01
2023-03-23T11:31:03.289Z,971.07
2023-03-23T11:32:03.165Z,971.13
2023-03-23T11:33:03.200Z,971.13
2023-03-23T11:34:06.702Z,971.01
2023-03-23T11:35:16.478Z,970.98
2023-03-23T11:36:03.317Z,971.12
2023-03-23T11:37:03.190Z,971.06
2023-03-23T11:38:03.218Z,971.15
2023-03-23T11:39:03.237Z,971.18
2023-03-23T11:40:03.138Z,971.09
2023-03-23T11:41:03.159Z,971.20
2023-03-23T11:42:09.837Z,971.15
2023-03-23T11:43:02.979Z,971.14
2023-03-23T11:44:03.047Z,971.09
2023-03-23T11:45:03.057Z,971.23
2023-03-23T11:46:03.018Z,971.17
2023-03-23T11:47:02.977Z,971.23
2023-03-23T11:48:03.019Z,971.11
2023-03-23T11:49:12.867Z,971.25
2023-03-23T11:50:03.937Z,971.31
2023-03-23T11:51:03.963Z,971.20
2023-03-23T11:52:03.933Z,971.08
2023-03-23T11:53:03.918Z,971.16
2023-03-23T11:54:03.843Z,971.14
2023-03-23T11:55:03.830Z,971.31
2023-03-23T11:56:03.159Z,971.19
2023-03-23T11:57:03.928Z,971.19
2023-03-23T11:58:02.974Z,971.20
2023-03-23T11:59:02.963Z,971.23
2023-03-23T12:00:03.145Z,971.28
2023-03-23T12:01:03.143Z,971.34
2023-03-23T12:02:17.357Z,971.17
2023-03-23T12:03:03.094Z,971.29
2023-03-23T12:04:03.204Z,971.26
2023-03-23T12:05:03.158Z,971.23
2023-03-23T12:06:03.161Z,971.34
2023-03-23T12:07:03.213Z,971.31
2023-03-23T12:08:03.171Z,971.40
2023-03-23T12:09:03.178Z,971.45
2023-03-23T12:10:03.218Z,971.37
2023-03-23T12:11:03.955Z,971.37
2023-03-23T12:12:03.200Z,971.39
2023-03-23T12:13:03.098Z,971.39
2023-03-23T12:14:03.145Z,971.22
2023-03-23T12:15:03.108Z,971.24
2023-03-23T12:16:03.137Z,971.41
2023-03-23T12:17:03.220Z,971.38
2023-03-23T12:18:03.198Z,971.18
2023-03-23T12:19:03.332Z,971.23
2023-03-23T12:20:03.482Z,971.29
2023-03-23T12:21:03.569Z,971.29
2023-03-23T12:22:03.509Z,971.37
2023-03-23T12:23:03.401Z,971.40
2023-03-23T12:24:06.437Z,971.31
2023-03-23T12:25:03.461Z,971.34
2023-03-23T12:26:03.467Z,971.34
2023-03-23T12:27:03.440Z,971.33
2023-03-23T12:28:03.610Z,971.27
2023-03-23T12:29:03.426Z,971.18
2023-03-23T12:30:03.326Z,971.34